EDDF/FRA METAR and TAF weather

Enter ICAO airport designator
Station Type Date Time Source
EDDF METAR 2019/12/12 11:50 UTC NOAA

EDDF 121150Z 19005KT 150V250 9999 SCT007 BKN013 05/04 Q1003 TEMPO BKN015


Station Type Date Time Source
EDDF Decoded METAR 2019/12/12 11:50 UTC NOAA

Frankfurt / M-Flughafen, Germany (EDDF) 50-03N 008-36E 113M
Dec 12, 2019 - 06:50 AM EST / 2019.12.12 1150 UTC
Wind: from the S (190 degrees) at 6 MPH (5 KT) (direction variable):0
Visibility: greater than 7 mile(s):0
Sky conditions: mostly cloudy
Temperature: 41 F (5 C)
Dew Point: 39 F (4 C)
Relative Humidity: 93%
Pressure (altimeter): 29.62 in. Hg (1003 hPa)
ob: EDDF 121150Z 19005KT 150V250 9999 SCT007 BKN013 05/04 Q1003 TEMPO BKN015
cycle: 12

Station Type Date Time Source
EDDF TAF 2019/12/12 12:27 UTC NOAA

TAF TAF EDDF 121100Z 1212/1318 20009KT 7000 BKN006
BECMG 1212/1214 BKN015
BECMG 1214/1217 SCT015
BECMG 1218/1220 14008KT
BECMG 1223/1302 BKN020
TEMPO 1301/1306 3000 RASN BKN012 PROB30
TEMPO 1301/1303 1200 SN BKN005
TEMPO 1306/1312 4000 RA BKN012
BECMG 1306/1309 21012KT
TEMPO 1310/1318 22015G25KT

Example: see airport list